Time;durP1;ratioP1;P1;durP2;ratioP2;P2;SDS_P1;SDS_P2;PMS_P1;PMS_P2;Temp;Humidity;BMP_temperature;BMP_pressure;BME280_temperature;BME280_humidity;BME280_pressure;Samples;Min_cycle;Max_cycle;Signal;HPM_P1;HPM_P2
2022/09/26 00:00:31;;;;;;;4.63;3.35;;;15.10;97.70;;;;;;5011302;28;20113;-72
2022/09/26 00:02:57;;;;;;;4.97;3.45;;;15.20;97.70;;;;;;5023249;28;20376;-70
2022/09/26 00:05:22;;;;;;;4.38;3.15;;;15.10;97.70;;;;;;4997768;28;20037;-71
2022/09/26 00:07:48;;;;;;;5.70;3.10;;;15.10;97.80;;;;;;5015407;28;20033;-71
2022/09/26 00:10:13;;;;;;;5.70;3.42;;;15.10;97.70;;;;;;5016178;28;20022;-71
2022/09/26 00:12:39;;;;;;;4.63;2.88;;;15.10;97.60;;;;;;5014781;28;20052;-71
2022/09/26 00:15:05;;;;;;;5.22;2.92;;;15.00;97.50;;;;;;5015997;28;20117;-71
2022/09/26 00:17:31;;;;;;;4.35;2.90;;;15.00;97.60;;;;;;5014892;28;20030;-71
2022/09/26 00:19:59;;;;;;;4.13;2.50;;;15.00;97.60;;;;;;5012882;28;20053;-72
2022/09/26 00:22:24;;;;;;;3.25;2.55;;;15.00;97.50;;;;;;5014072;28;20042;-71
2022/09/26 00:24:51;;;;;;;4.28;2.65;;;15.00;97.50;;;;;;5014650;28;20030;-70
2022/09/26 00:27:18;;;;;;;5.72;2.50;;;15.00;97.40;;;;;;5013318;28;20025;-71
2022/09/26 00:29:44;;;;;;;5.15;2.60;;;15.00;97.30;;;;;;5014853;28;20488;-71
2022/09/26 00:32:10;;;;;;;4.53;2.70;;;14.90;97.20;;;;;;5016236;28;20037;-70
2022/09/26 00:34:35;;;;;;;4.68;2.53;;;14.90;97.30;;;;;;5013322;28;20026;-70
2022/09/26 00:37:01;;;;;;;5.65;2.78;;;15.00;97.30;;;;;;5014702;28;20377;-74
2022/09/26 00:39:27;;;;;;;4.18;2.28;;;14.90;97.30;;;;;;5014341;28;20065;-70
2022/09/26 00:41:53;;;;;;;3.65;2.30;;;14.90;97.30;;;;;;5014536;28;20025;-71
2022/09/26 00:44:42;;;;;;;3.45;2.25;;;14.90;97.30;;;;;;5013988;28;20111;-75
2022/09/26 00:47:34;;;;;;;3.92;2.30;;;14.90;97.30;;;;;;5014434;28;20025;-71
2022/09/26 00:50:06;;;;;;;6.70;2.75;;;14.80;97.40;;;;;;5026726;28;20060;-70
2022/09/26 00:52:43;;;;;;;5.78;2.55;;;14.80;97.40;;;;;;5024092;28;20069;-70
2022/09/26 00:55:12;;;;;;;4.55;2.85;;;14.80;97.40;;;;;;5014100;28;20058;-70
2022/09/26 00:57:44;;;;;;;4.68;2.58;;;14.80;97.40;;;;;;5005518;28;20036;-70
2022/09/26 01:00:13;;;;;;;5.65;3.10;;;14.80;97.40;;;;;;5014591;28;20042;-70
2022/09/26 01:02:40;;;;;;;6.30;2.97;;;14.80;97.40;;;;;;5010625;28;20045;-70
2022/09/26 01:05:06;;;;;;;7.57;4.18;;;14.80;97.50;;;;;;5001017;28;20017;-70
2022/09/26 01:07:33;;;;;;;4.60;2.88;;;14.80;97.40;;;;;;5014836;28;20033;-70
2022/09/26 01:10:02;;;;;;;4.35;2.63;;;14.80;97.50;;;;;;5014452;28;20030;-70
2022/09/26 01:12:27;;;;;;;6.57;3.38;;;14.80;97.50;;;;;;5014336;28;20026;-70
2022/09/26 01:14:54;;;;;;;7.85;2.92;;;14.80;97.60;;;;;;5011221;28;20049;-70
2022/09/26 01:17:22;;;;;;;7.85;3.58;;;14.70;97.60;;;;;;5013250;28;20438;-70
2022/09/26 01:20:25;;;;;;;4.68;2.83;;;14.70;97.60;;;;;;5013144;28;20060;-70
2022/09/26 01:22:57;;;;;;;5.55;3.70;;;14.70;97.60;;;;;;5017644;28;20037;-70
2022/09/26 01:26:06;;;;;;;4.57;2.65;;;14.70;97.60;;;;;;4995763;28;20030;-69
2022/09/26 01:28:51;;;;;;;4.57;2.50;;;14.70;97.60;;;;;;4994566;28;20057;-69
2022/09/26 01:31:23;;;;;;;4.68;2.50;;;14.70;97.60;;;;;;5006404;28;20030;-69
2022/09/26 01:34:15;;;;;;;3.20;2.60;;;14.70;97.60;;;;;;5013778;28;20026;-69
2022/09/26 01:37:06;;;;;;;4.28;2.85;;;14.70;97.60;;;;;;5013989;28;20115;-69
2022/09/26 01:39:57;;;;;;;3.67;2.47;;;14.70;97.60;;;;;;5014670;28;20033;-69
2022/09/26 01:42:48;;;;;;;5.60;2.60;;;14.70;97.70;;;;;;4994704;28;20041;-69
2022/09/26 01:45:20;;;;;;;3.85;2.60;;;14.70;97.70;;;;;;5004130;28;20033;-68
2022/09/26 01:48:04;;;;;;;6.45;2.70;;;14.70;97.70;;;;;;5006602;28;20026;-68
2022/09/26 01:50:42;;;;;;;6.45;2.92;;;14.70;97.70;;;;;;5005964;28;20026;-68
2022/09/26 01:53:13;;;;;;;6.28;2.75;;;14.60;97.60;;;;;;4993278;28;20038;-69
2022/09/26 01:55:45;;;;;;;6.70;2.75;;;14.60;97.70;;;;;;5007442;28;20041;-68
2022/09/26 01:58:29;;;;;;;4.43;2.40;;;14.60;97.70;;;;;;5013555;28;20032;-68
2022/09/26 02:00:59;;;;;;;8.32;3.72;;;14.60;97.70;;;;;;5013260;28;20166;-68
2022/09/26 02:03:30;;;;;;;5.25;2.63;;;14.60;97.70;;;;;;4995090;28;20046;-69
2022/09/26 02:06:02;;;;;;;2.95;2.20;;;14.60;97.80;;;;;;5008618;28;20117;-68
2022/09/26 02:08:44;;;;;;;5.10;2.25;;;14.60;97.80;;;;;;5012521;28;20388;-68
2022/09/26 02:11:18;;;;;;;4.43;2.55;;;14.60;97.80;;;;;;5012870;28;20431;-68
2022/09/26 02:13:54;;;;;;;5.28;2.88;;;14.60;97.80;;;;;;5007287;28;20041;-69
2022/09/26 02:16:36;;;;;;;5.57;2.63;;;14.70;97.70;;;;;;5011831;28;20469;-69
2022/09/26 02:19:23;;;;;;;4.78;2.40;;;14.70;97.70;;;;;;5001110;28;20034;-69
2022/09/26 02:21:49;;;;;;;7.53;2.78;;;14.70;97.70;;;;;;5009401;28;20427;-69
2022/09/26 02:24:15;;;;;;;5.55;2.70;;;14.70;97.70;;;;;;4995040;28;20382;-69
2022/09/26 02:26:42;;;;;;;4.00;2.63;;;14.70;97.70;;;;;;5011137;28;20032;-69
2022/09/26 02:29:10;;;;;;;4.53;2.30;;;14.70;97.70;;;;;;5013286;28;20033;-69
2022/09/26 02:31:43;;;;;;;5.68;2.30;;;14.70;97.70;;;;;;4995008;28;20108;-69
2022/09/26 02:34:08;;;;;;;3.40;2.00;;;14.70;97.70;;;;;;4993849;28;20026;-69
2022/09/26 02:36:34;;;;;;;7.45;2.92;;;14.70;97.70;;;;;;5013003;28;20734;-69
2022/09/26 02:39:00;;;;;;;5.55;2.50;;;14.80;97.80;;;;;;5003552;28;20108;-69
2022/09/26 02:41:32;;;;;;;3.53;2.47;;;14.80;97.80;;;;;;4986535;28;20157;-69
2022/09/26 02:44:36;;;;;;;5.95;2.28;;;14.70;97.80;;;;;;5011326;28;20053;-69
2022/09/26 02:47:20;;;;;;;2.67;2.30;;;14.70;97.70;;;;;;4998928;28;20042;-69
2022/09/26 02:49:57;;;;;;;4.10;2.70;;;14.70;97.70;;;;;;5011728;28;20037;-69
2022/09/26 02:52:52;;;;;;;3.22;1.90;;;14.70;97.70;;;;;;4997087;28;20507;-69
2022/09/26 02:55:32;;;;;;;5.95;2.85;;;14.70;97.80;;;;;;5003621;28;20153;-69
2022/09/26 02:58:02;;;;;;;5.30;2.45;;;14.70;97.70;;;;;;5010089;28;20104;-69
2022/09/26 03:00:39;;;;;;;5.88;2.67;;;14.70;97.70;;;;;;4996975;28;20022;-69
2022/09/26 03:03:36;;;;;;;4.30;2.30;;;14.70;97.70;;;;;;4992044;28;20116;-70
2022/09/26 03:06:06;;;;;;;5.72;2.58;;;14.70;97.70;;;;;;4985338;28;20126;-69
2022/09/26 03:08:55;;;;;;;3.65;2.40;;;14.70;97.70;;;;;;5002081;28;20473;-69
2022/09/26 03:11:43;;;;;;;3.70;2.55;;;14.70;97.70;;;;;;4997737;28;20446;-69
2022/09/26 03:14:32;;;;;;;4.85;2.80;;;14.80;97.70;;;;;;4984614;28;20076;-69
2022/09/26 03:17:19;;;;;;;4.38;2.65;;;14.80;97.70;;;;;;5009404;28;20034;-69
2022/09/26 03:20:12;;;;;;;6.57;2.45;;;14.70;97.70;;;;;;5010821;28;20034;-69
2022/09/26 03:22:58;;;;;;;4.65;2.95;;;14.70;97.60;;;;;;5000183;28;20365;-69
2022/09/26 03:25:44;;;;;;;5.85;2.40;;;14.70;97.50;;;;;;5000698;28;20025;-68
2022/09/26 03:28:30;;;;;;;5.05;2.55;;;14.70;97.50;;;;;;5006145;28;20068;-69
2022/09/26 03:31:20;;;;;;;5.47;2.50;;;14.70;97.50;;;;;;5027707;28;20108;-69
2022/09/26 03:34:06;;;;;;;4.95;2.97;;;14.80;97.60;;;;;;5018794;28;20088;-69
2022/09/26 03:36:52;;;;;;;5.68;2.70;;;14.70;97.60;;;;;;5004602;28;20141;-69
2022/09/26 03:39:38;;;;;;;4.68;2.53;;;14.70;97.60;;;;;;5003320;28;20112;-69
2022/09/26 03:42:24;;;;;;;4.22;2.70;;;14.70;97.60;;;;;;5002372;28;20042;-69
2022/09/26 03:45:10;;;;;;;6.20;2.88;;;14.80;97.60;;;;;;5008873;28;22021;-68
2022/09/26 03:47:40;;;;;;;5.50;2.83;;;14.70;97.60;;;;;;5015932;28;20076;-69
2022/09/26 03:50:07;;;;;;;6.32;3.22;;;14.70;97.70;;;;;;5002064;28;20400;-69
2022/09/26 03:52:32;;;;;;;5.65;2.75;;;14.70;97.70;;;;;;5010931;28;20030;-69
2022/09/26 03:54:58;;;;;;;3.85;2.58;;;14.70;97.80;;;;;;5005468;28;20547;-68
2022/09/26 03:57:23;;;;;;;3.53;2.28;;;14.60;97.90;;;;;;5011646;28;20030;-69
2022/09/26 03:59:49;;;;;;;6.88;3.03;;;14.60;98.00;;;;;;5011366;28;20054;-69
2022/09/26 04:02:15;;;;;;;5.65;3.13;;;14.60;98.00;;;;;;5009694;28;20393;-69
2022/09/26 04:04:41;;;;;;;5.35;3.08;;;14.60;98.00;;;;;;4999432;28;20493;-69
2022/09/26 04:07:07;;;;;;;4.35;2.45;;;14.70;98.00;;;;;;5026535;28;20043;-69
2022/09/26 04:09:32;;;;;;;4.60;2.80;;;14.70;98.00;;;;;;5006201;28;20033;-69
2022/09/26 04:11:58;;;;;;;6.53;2.90;;;14.70;97.90;;;;;;5011710;28;20030;-69
2022/09/26 04:14:24;;;;;;;5.82;3.13;;;14.70;97.90;;;;;;5013675;28;20079;-69
2022/09/26 04:16:50;;;;;;;4.60;2.70;;;14.60;97.90;;;;;;5008676;28;20033;-69
2022/09/26 04:19:16;;;;;;;5.60;3.15;;;14.60;98.00;;;;;;4996043;28;20026;-69
2022/09/26 04:21:42;;;;;;;4.38;2.80;;;14.60;98.00;;;;;;5011049;28;20030;-69
2022/09/26 04:24:13;;;;;;;4.90;2.72;;;14.50;98.10;;;;;;5008477;28;20039;-69
2022/09/26 04:26:40;;;;;;;5.35;2.72;;;14.50;98.20;;;;;;5021625;28;20109;-69
2022/09/26 04:29:06;;;;;;;5.22;2.55;;;14.40;98.20;;;;;;5006630;28;20026;-69
2022/09/26 04:31:35;;;;;;;5.35;2.90;;;14.50;98.30;;;;;;4994370;28;20072;-69
2022/09/26 04:34:01;;;;;;;5.75;2.50;;;14.40;98.30;;;;;;5004468;28;20025;-69
2022/09/26 04:36:26;;;;;;;5.28;2.65;;;14.40;98.30;;;;;;4994081;28;20032;-69
2022/09/26 04:38:52;;;;;;;4.75;2.92;;;14.30;98.40;;;;;;5009262;28;20027;-69
2022/09/26 04:41:19;;;;;;;4.30;2.92;;;14.30;98.40;;;;;;5011765;28;20037;-69
2022/09/26 04:43:46;;;;;;;5.85;2.75;;;14.20;98.50;;;;;;5009285;28;20069;-70
2022/09/26 04:46:20;;;;;;;4.28;2.88;;;14.20;98.60;;;;;;4993700;28;20037;-69
2022/09/26 04:48:46;;;;;;;5.25;3.38;;;14.10;98.60;;;;;;5006656;28;20071;-69
2022/09/26 04:51:14;;;;;;;5.28;2.92;;;14.10;98.60;;;;;;5013491;28;20101;-69
2022/09/26 04:53:40;;;;;;;4.10;2.65;;;14.10;98.70;;;;;;4995914;28;20045;-69
2022/09/26 04:56:08;;;;;;;7.78;2.83;;;14.10;98.80;;;;;;5005500;28;20056;-69
2022/09/26 04:58:36;;;;;;;4.90;2.65;;;14.00;98.90;;;;;;5013845;28;20034;-68
2022/09/26 05:01:04;;;;;;;8.30;3.63;;;14.00;98.90;;;;;;5004886;28;20029;-70
2022/09/26 05:03:30;;;;;;;5.10;3.03;;;14.00;98.90;;;;;;5014292;28;20404;-69
2022/09/26 05:05:56;;;;;;;7.97;3.92;;;14.00;99.00;;;;;;5004386;28;20022;-69
2022/09/26 05:08:22;;;;;;;5.28;3.22;;;14.00;99.00;;;;;;5014833;28;20026;-70
2022/09/26 05:10:56;;;;;;;7.50;3.40;;;14.00;99.00;;;;;;5013700;28;20026;-70
2022/09/26 05:13:23;;;;;;;4.85;3.13;;;14.00;99.00;;;;;;4996769;28;20498;-69
2022/09/26 05:15:52;;;;;;;6.25;3.30;;;13.90;99.00;;;;;;5011063;28;20034;-69
2022/09/26 05:18:18;;;;;;;5.60;3.58;;;13.90;99.10;;;;;;5008095;28;20041;-70
2022/09/26 05:20:47;;;;;;;4.63;3.38;;;13.90;99.10;;;;;;5012179;28;20036;-70
2022/09/26 05:26:18;;;;;;;5.25;3.10;;;13.90;99.10;;;;;;5014644;28;20041;-69
2022/09/26 05:26:18;;;;;;;7.70;3.67;;;13.90;99.20;;;;;;5005278;28;20172;-69
2022/09/26 05:29:03;;;;;;;4.47;3.03;;;13.80;99.20;;;;;;5013172;28;20030;-69
2022/09/26 05:31:31;;;;;;;4.95;3.30;;;13.80;99.20;;;;;;5004433;28;20061;-69
2022/09/26 05:33:56;;;;;;;7.93;4.15;;;13.90;99.20;;;;;;4992705;28;20498;-68
2022/09/26 05:36:23;;;;;;;7.40;3.83;;;13.80;99.20;;;;;;4996817;28;20109;-70
2022/09/26 05:38:49;;;;;;;7.07;3.95;;;13.80;99.30;;;;;;5010982;28;20117;-69
2022/09/26 05:41:15;;;;;;;4.78;3.50;;;13.80;99.30;;;;;;4995295;28;20118;-69
2022/09/26 05:43:42;;;;;;;4.68;3.65;;;13.80;99.40;;;;;;5010989;28;20132;-69
2022/09/26 05:46:09;;;;;;;7.55;3.55;;;13.80;99.40;;;;;;5003216;28;20488;-67
2022/09/26 05:48:37;;;;;;;5.40;3.65;;;13.80;99.40;;;;;;5014710;28;20034;-68
2022/09/26 05:51:05;;;;;;;4.25;3.03;;;13.80;99.40;;;;;;5010493;28;20026;-68
2022/09/26 05:53:32;;;;;;;5.95;3.40;;;13.80;99.40;;;;;;5005731;28;20081;-69
2022/09/26 05:55:58;;;;;;;4.57;3.40;;;13.80;99.40;;;;;;5008527;28;20116;-69
2022/09/26 05:58:27;;;;;;;6.53;3.55;;;13.90;99.40;;;;;;5013475;28;20473;-69
2022/09/26 06:00:52;;;;;;;5.85;3.47;;;13.90;99.40;;;;;;5001677;28;20084;-69
2022/09/26 06:03:18;;;;;;;6.90;3.38;;;13.90;99.40;;;;;;5013560;28;20504;-69
2022/09/26 06:05:44;;;;;;;5.18;3.33;;;13.80;99.40;;;;;;4994677;28;20389;-68
2022/09/26 06:08:10;;;;;;;5.70;3.97;;;13.90;99.50;;;;;;5013611;28;20465;-68
2022/09/26 06:10:37;;;;;;;8.85;4.03;;;13.90;99.50;;;;;;5001360;28;20567;-68
2022/09/26 06:13:03;;;;;;;8.07;4.05;;;13.90;99.50;;;;;;5020924;28;20029;-69
2022/09/26 06:15:30;;;;;;;6.65;3.50;;;13.80;99.50;;;;;;5007775;28;20500;-68
2022/09/26 06:18:03;;;;;;;6.68;3.70;;;13.90;99.50;;;;;;5012903;28;20097;-68
2022/09/26 06:20:31;;;;;;;7.25;3.70;;;14.00;99.50;;;;;;5006084;28;20036;-69
2022/09/26 06:22:58;;;;;;;12.48;3.78;;;14.00;99.50;;;;;;5013035;28;20393;-69
2022/09/26 06:25:24;;;;;;;6.25;3.60;;;14.00;99.50;;;;;;5008944;28;20044;-69
2022/09/26 06:27:54;;;;;;;5.78;3.72;;;14.00;99.50;;;;;;4998549;28;20113;-69
2022/09/26 06:30:20;;;;;;;6.97;3.65;;;14.00;99.50;;;;;;5008850;28;20026;-69
2022/09/26 06:32:46;;;;;;;5.82;3.95;;;14.10;99.50;;;;;;5011826;28;20515;-69
2022/09/26 06:35:12;;;;;;;5.05;3.80;;;14.10;99.50;;;;;;5010154;28;20057;-69
2022/09/26 06:37:38;;;;;;;6.90;3.65;;;14.10;99.50;;;;;;5012085;28;20026;-69
2022/09/26 06:40:04;;;;;;;9.70;4.25;;;14.10;99.50;;;;;;5006296;28;20033;-69
2022/09/26 06:42:36;;;;;;;10.90;4.03;;;14.20;99.50;;;;;;5008387;28;20037;-69
2022/09/26 06:45:06;;;;;;;7.97;4.20;;;14.20;99.50;;;;;;4992446;28;20489;-69
2022/09/26 06:47:32;;;;;;;9.70;4.22;;;14.20;99.40;;;;;;5012416;28;20163;-69
2022/09/26 06:49:58;;;;;;;6.10;3.83;;;14.30;99.60;;;;;;5006364;28;20066;-69
2022/09/26 06:52:25;;;;;;;6.75;4.03;;;14.30;99.30;;;;;;4998227;28;20057;-69
2022/09/26 06:54:51;;;;;;;8.25;4.00;;;14.30;99.30;;;;;;5004482;28;20050;-70
2022/09/26 06:57:17;;;;;;;8.48;3.95;;;14.30;99.30;;;;;;4994095;28;20030;-69
2022/09/26 06:59:42;;;;;;;9.38;4.55;;;14.30;99.40;;;;;;4993969;28;20026;-68
2022/09/26 07:02:08;;;;;;;7.68;4.07;;;14.40;99.30;;;;;;5008576;28;20029;-70
2022/09/26 07:04:34;;;;;;;7.82;4.38;;;14.40;99.30;;;;;;5011859;28;20026;-69
2022/09/26 07:07:00;;;;;;;7.88;4.45;;;14.40;99.30;;;;;;5010346;28;20098;-70
2022/09/26 07:09:26;;;;;;;5.93;4.05;;;14.50;99.20;;;;;;5011914;28;20113;-69
2022/09/26 07:11:52;;;;;;;6.55;4.72;;;14.50;99.10;;;;;;5011135;28;20068;-69
2022/09/26 07:14:17;;;;;;;6.80;4.65;;;14.60;99.00;;;;;;5009123;28;20022;-69
2022/09/26 07:16:43;;;;;;;6.72;3.95;;;14.60;99.00;;;;;;5002874;28;20037;-69
2022/09/26 07:19:11;;;;;;;7.90;4.30;;;14.60;99.00;;;;;;5012109;28;20045;-69
2022/09/26 07:21:37;;;;;;;8.73;4.80;;;14.70;99.00;;;;;;5001282;28;20029;-69
2022/09/26 07:24:03;;;;;;;7.05;4.43;;;14.70;99.00;;;;;;5011972;28;20408;-69
2022/09/26 07:26:28;;;;;;;8.70;4.15;;;14.70;99.10;;;;;;4999677;28;20095;-68
2022/09/26 07:28:54;;;;;;;7.10;4.50;;;14.70;99.10;;;;;;5011715;28;20508;-68
2022/09/26 07:31:22;;;;;;;8.30;4.70;;;14.80;99.10;;;;;;5009744;28;20037;-73
2022/09/26 07:33:47;;;;;;;9.50;4.97;;;14.80;99.10;;;;;;4982296;28;20022;-71
2022/09/26 07:36:14;;;;;;;8.05;4.90;;;14.90;99.00;;;;;;4996275;28;20025;-70
2022/09/26 07:38:41;;;;;;;5.70;4.20;;;14.90;99.00;;;;;;5012032;28;20026;-70
2022/09/26 07:41:09;;;;;;;5.95;4.25;;;15.00;98.90;;;;;;5011054;28;20029;-70
2022/09/26 07:43:35;;;;;;;6.50;4.28;;;15.00;98.90;;;;;;5012287;28;20041;-70
2022/09/26 07:51:31;;;;;;;8.03;4.07;;;15.10;98.80;;;;;;5008938;28;20045;-70
2022/09/26 07:53:57;;;;;;;6.75;5.10;;;15.20;98.80;;;;;;5004335;28;20042;-70
2022/09/26 07:56:22;;;;;;;6.50;3.70;;;15.20;98.70;;;;;;5000674;28;20535;-69
2022/09/26 07:58:49;;;;;;;6.35;3.40;;;15.20;98.60;;;;;;5007343;28;20053;-72
2022/09/26 08:01:16;;;;;;;7.13;3.20;;;15.20;98.40;;;;;;5008028;28;20022;-71
2022/09/26 08:03:48;;;;;;;6.93;3.65;;;15.30;98.30;;;;;;5001794;28;20418;-71
2022/09/26 08:06:19;;;;;;;5.55;3.22;;;15.40;98.30;;;;;;5000024;28;20081;-70
2022/09/26 08:08:46;;;;;;;5.47;3.20;;;15.40;98.20;;;;;;5011151;28;20042;-71
2022/09/26 08:11:17;;;;;;;5.78;3.20;;;15.50;98.20;;;;;;5009308;28;20448;-71
2022/09/26 08:13:43;;;;;;;6.18;3.00;;;15.50;97.90;;;;;;5011866;28;20376;-71
2022/09/26 08:16:11;;;;;;;3.58;2.58;;;15.50;97.80;;;;;;5017573;28;20040;-71
2022/09/26 08:18:36;;;;;;;5.03;2.80;;;15.60;97.70;;;;;;5008253;28;20037;-71
2022/09/26 08:21:04;;;;;;;5.15;2.83;;;15.70;97.60;;;;;;5005618;28;20022;-70
2022/09/26 08:23:31;;;;;;;4.45;2.65;;;15.80;97.50;;;;;;5012604;28;20038;-71
2022/09/26 08:25:57;;;;;;;4.15;2.88;;;15.80;97.20;;;;;;5010620;28;20869;-71
2022/09/26 08:28:26;;;;;;;4.25;2.78;;;15.90;97.10;;;;;;4997075;28;20369;-71
2022/09/26 08:30:51;;;;;;;4.60;2.55;;;15.90;96.90;;;;;;4989775;28;20022;-71
2022/09/26 08:33:17;;;;;;;5.15;2.40;;;15.90;96.80;;;;;;4996303;28;20542;-71
2022/09/26 08:35:44;;;;;;;7.05;3.65;;;16.00;96.90;;;;;;4993967;28;20362;-72
2022/09/26 08:38:10;;;;;;;6.15;3.20;;;16.00;96.70;;;;;;5004276;28;20039;-71
2022/09/26 08:40:55;;;;;;;6.25;3.42;;;16.00;96.70;;;;;;5014534;28;20030;-70
2022/09/26 08:43:39;;;;;;;6.88;3.15;;;16.00;96.60;;;;;;5012619;28;20107;-71
2022/09/26 08:49:14;;;;;;;6.50;3.28;;;16.00;96.50;;;;;;5012272;28;20099;-72
2022/09/26 08:51:48;;;;;;;4.07;2.40;;;16.00;96.50;;;;;;5004034;28;20033;-72
2022/09/26 08:54:36;;;;;;;6.22;2.83;;;16.00;96.50;;;;;;5009952;28;20160;-71
2022/09/26 08:57:28;;;;;;;5.95;2.65;;;16.10;96.30;;;;;;5010999;28;20030;-70
2022/09/26 08:59:54;;;;;;;4.53;2.42;;;16.10;96.20;;;;;;5000065;28;20018;-71
2022/09/26 09:02:36;;;;;;;7.03;3.55;;;16.20;96.00;;;;;;5010577;28;20026;-72
2022/09/26 09:05:17;;;;;;;4.13;2.25;;;16.30;95.80;;;;;;4996838;28;20435;-72
2022/09/26 09:07:48;;;;;;;4.60;2.45;;;16.30;95.60;;;;;;5010429;28;20056;-73
2022/09/26 09:10:16;;;;;;;3.35;2.00;;;16.40;95.30;;;;;;4993250;28;20375;-72
2022/09/26 09:12:42;;;;;;;4.90;2.50;;;16.40;95.10;;;;;;5025890;28;20044;-75
2022/09/26 09:15:52;;;;;;;5.80;2.13;;;16.40;94.90;;;;;;5019646;28;20018;-75
2022/09/26 09:18:27;;;;;;;3.95;2.03;;;16.50;94.80;;;;;;4915900;29;20032;-71
2022/09/26 09:21:00;;;;;;;3.08;1.83;;;16.50;94.60;;;;;;4914520;29;20464;-74
2022/09/26 09:23:51;;;;;;;3.78;2.22;;;16.50;94.40;;;;;;4971125;28;20053;-73
2022/09/26 09:26:44;;;;;;;4.22;2.30;;;16.50;94.50;;;;;;5003221;28;20430;-74
2022/09/26 09:29:30;;;;;;;5.22;2.78;;;16.60;94.30;;;;;;5010494;28;20049;-73
2022/09/26 09:32:00;;;;;;;4.18;2.58;;;16.70;94.00;;;;;;4996084;28;20067;-77
2022/09/26 09:34:31;;;;;;;3.58;2.15;;;16.70;94.00;;;;;;5013638;28;20492;-74
2022/09/26 09:37:03;;;;;;;8.55;3.17;;;16.70;93.80;;;;;;4998060;28;20437;-74
2022/09/26 09:39:38;;;;;;;4.47;2.05;;;16.80;93.90;;;;;;5017470;28;20038;-74
2022/09/26 09:42:17;;;;;;;4.13;1.70;;;16.90;93.90;;;;;;5017115;28;20493;-74
2022/09/26 09:44:57;;;;;;;3.65;1.73;;;16.90;93.70;;;;;;5010565;28;20675;-73
2022/09/26 09:47:28;;;;;;;4.10;1.95;;;17.00;93.50;;;;;;5008844;28;20484;-77
2022/09/26 09:49:55;;;;;;;2.75;1.50;;;17.10;93.40;;;;;;5001108;28;20436;-76
2022/09/26 09:52:32;;;;;;;4.50;1.67;;;17.20;93.30;;;;;;5018276;28;20026;-77
2022/09/26 09:55:37;;;;;;;3.15;1.67;;;17.30;93.00;;;;;;5007993;28;20054;-77
2022/09/26 09:58:28;;;;;;;2.58;1.67;;;17.40;92.90;;;;;;5003658;28;20026;-77
2022/09/26 10:01:12;;;;;;;4.30;1.67;;;17.40;92.70;;;;;;5013953;28;20533;-76
2022/09/26 10:04:00;;;;;;;2.00;1.27;;;17.40;92.40;;;;;;5012958;28;20041;-77
2022/09/26 10:06:26;;;;;;;3.40;1.65;;;17.50;92.20;;;;;;5001138;28;20442;-76
2022/09/26 10:08:51;;;;;;;4.35;1.58;;;17.50;91.90;;;;;;5007376;28;20046;-74
2022/09/26 10:11:35;;;;;;;3.05;1.90;;;17.40;91.80;;;;;;4999428;28;20409;-74
2022/09/26 10:14:05;;;;;;;2.97;1.50;;;17.40;91.60;;;;;;5005177;28;20034;-74
2022/09/26 10:17:07;;;;;;;3.50;1.48;;;17.40;91.80;;;;;;4996602;28;20473;-74
2022/09/26 10:19:37;;;;;;;3.53;1.73;;;17.40;91.90;;;;;;5009326;28;20507;-74
2022/09/26 10:22:08;;;;;;;3.72;1.65;;;17.40;91.70;;;;;;5005863;28;20030;-74
2022/09/26 10:24:42;;;;;;;3.90;1.55;;;17.50;91.60;;;;;;5006860;28;20046;-74
2022/09/26 10:27:24;;;;;;;2.30;1.37;;;17.70;91.60;;;;;;4990611;28;20030;-74
2022/09/26 10:30:05;;;;;;;2.67;1.60;;;17.80;91.60;;;;;;5009282;28;20040;-73
2022/09/26 10:32:44;;;;;;;2.65;1.45;;;17.90;91.70;;;;;;5008254;28;20053;-74
2022/09/26 10:35:20;;;;;;;2.72;1.85;;;18.00;91.00;;;;;;5010900;28;20057;-74
2022/09/26 10:37:56;;;;;;;3.78;1.40;;;18.10;90.90;;;;;;5012085;28;20114;-70
2022/09/26 10:43:34;;;;;;;17.45;3.17;;;18.30;90.70;;;;;;4994549;28;20096;-69
2022/09/26 10:46:12;;;;;;;9.38;2.85;;;18.40;90.60;;;;;;5009018;28;20030;-70
2022/09/26 10:48:53;;;;;;;8.38;2.42;;;18.40;90.30;;;;;;5032763;28;20025;-69
2022/09/26 10:51:27;;;;;;;5.97;1.90;;;18.50;90.20;;;;;;5013799;28;20030;-70
2022/09/26 10:54:03;;;;;;;3.85;1.73;;;18.50;90.00;;;;;;5014635;28;20026;-70
2022/09/26 10:56:34;;;;;;;2.72;1.50;;;18.60;90.00;;;;;;5012093;28;20034;-68
2022/09/26 10:59:07;;;;;;;2.92;1.90;;;18.60;89.60;;;;;;5009393;28;20034;-69
2022/09/26 11:01:40;;;;;;;2.85;1.85;;;18.70;89.20;;;;;;5012304;28;20033;-70
2022/09/26 11:07:17;;;;;;;3.40;1.90;;;18.80;88.30;;;;;;5000167;28;20029;-70
2022/09/26 11:09:45;;;;;;;3.90;1.42;;;18.80;87.90;;;;;;5011425;28;20034;-70
2022/09/26 11:12:24;;;;;;;3.63;1.50;;;18.80;87.50;;;;;;5007112;28;20473;-70
2022/09/26 11:15:04;;;;;;;4.60;1.50;;;18.80;87.40;;;;;;5006373;28;20042;-70
2022/09/26 11:17:43;;;;;;;4.20;1.70;;;18.80;87.30;;;;;;4994122;28;20032;-70
2022/09/26 11:20:58;;;;;;;3.75;1.92;;;18.70;87.30;;;;;;4975879;28;20034;-70
2022/09/26 11:23:30;;;;;;;1.88;1.63;;;18.60;87.40;;;;;;5005412;28;20046;-71
2022/09/26 11:26:17;;;;;;;3.53;1.85;;;18.60;87.30;;;;;;5014788;28;20022;-70
2022/09/26 11:29:02;;;;;;;4.28;1.70;;;18.60;87.50;;;;;;5007977;28;20042;-71
2022/09/26 11:31:41;;;;;;;3.33;1.80;;;18.60;87.60;;;;;;4994137;28;20034;-71
2022/09/26 11:34:12;;;;;;;3.08;1.70;;;18.60;87.40;;;;;;4992886;28;20023;-71
2022/09/26 11:37:00;;;;;;;3.83;1.30;;;18.60;87.30;;;;;;5013963;28;20057;-71
2022/09/26 11:40:04;;;;;;;2.70;1.52;;;18.60;87.60;;;;;;5011235;28;20034;-71
2022/09/26 11:42:39;;;;;;;3.10;1.45;;;18.60;87.80;;;;;;4974459;28;20038;-72
2022/09/26 11:45:28;;;;;;;2.67;1.40;;;18.60;86.90;;;;;;5007284;28;20033;-72
2022/09/26 11:48:16;;;;;;;4.90;1.50;;;18.70;86.90;;;;;;5012210;28;20044;-71
2022/09/26 11:50:58;;;;;;;4.32;1.70;;;18.80;86.00;;;;;;4993359;28;20133;-71
2022/09/26 11:53:51;;;;;;;3.20;1.58;;;18.80;86.00;;;;;;5026086;28;20025;-70
2022/09/26 11:56:52;;;;;;;2.65;1.70;;;18.90;85.60;;;;;;4971636;28;20053;-70
2022/09/26 11:59:37;;;;;;;3.10;1.73;;;18.90;85.80;;;;;;4971563;28;20109;-71
2022/09/26 12:02:45;;;;;;;2.92;1.58;;;19.00;86.20;;;;;;4971689;28;20035;-71
2022/09/26 12:05:23;;;;;;;5.53;1.60;;;19.00;86.20;;;;;;4970213;28;20058;-71
2022/09/26 12:08:18;;;;;;;3.83;1.63;;;19.10;86.00;;;;;;4967827;28;20045;-71
2022/09/26 12:11:04;;;;;;;5.00;1.88;;;19.10;86.10;;;;;;4973121;28;20035;-71
2022/09/26 12:14:13;;;;;;;3.85;1.40;;;19.10;86.10;;;;;;4963310;28;20517;-72
2022/09/26 12:16:48;;;;;;;3.53;1.80;;;19.10;86.10;;;;;;4947635;28;20035;-72
2022/09/26 12:19:30;;;;;;;6.75;1.65;;;19.00;85.70;;;;;;4956167;28;20112;-72
2022/09/26 12:22:27;;;;;;;4.38;1.38;;;19.00;85.00;;;;;;4953835;28;20035;-72
2022/09/26 12:25:06;;;;;;;4.95;1.70;;;19.00;85.10;;;;;;4959683;28;20043;-72
2022/09/26 12:27:48;;;;;;;2.47;1.38;;;19.10;85.60;;;;;;4970498;28;20095;-74
2022/09/26 12:30:25;;;;;;;3.28;1.80;;;19.20;85.70;;;;;;4970248;28;20043;-71
2022/09/26 12:33:02;;;;;;;2.60;1.90;;;19.20;85.80;;;;;;4952638;28;20031;-74
2022/09/26 12:35:31;;;;;;;3.88;2.08;;;19.20;85.30;;;;;;4949806;28;20037;-70
2022/09/26 12:38:02;;;;;;;4.70;1.95;;;19.20;84.90;;;;;;4953109;28;20122;-70
2022/09/26 12:40:35;;;;;;;3.72;1.50;;;19.20;85.30;;;;;;4964015;28;20068;-70
2022/09/26 12:43:27;;;;;;;3.28;1.50;;;19.20;85.00;;;;;;4969080;28;20065;-69
2022/09/26 12:45:58;;;;;;;2.42;1.70;;;19.10;85.10;;;;;;4945810;28;20047;-72
2022/09/26 12:48:45;;;;;;;2.53;1.63;;;19.10;85.20;;;;;;4966546;28;20030;-73
2022/09/26 12:51:37;;;;;;;5.57;1.50;;;19.00;84.80;;;;;;4968145;28;20121;-73
2022/09/26 12:54:31;;;;;;;2.72;1.50;;;19.00;84.90;;;;;;4975905;28;20054;-72
2022/09/26 12:57:28;;;;;;;3.53;1.40;;;19.00;84.90;;;;;;5010850;28;20040;-74
2022/09/26 13:00:09;;;;;;;3.50;1.30;;;19.10;84.80;;;;;;5003186;28;20026;-73
2022/09/26 13:02:56;;;;;;;3.40;1.42;;;19.10;84.10;;;;;;5010138;28;20030;-73
2022/09/26 13:05:53;;;;;;;3.33;1.27;;;19.10;83.90;;;;;;5009594;28;20484;-73
2022/09/26 13:08:36;;;;;;;2.13;1.30;;;19.20;83.50;;;;;;5007190;28;20026;-73
2022/09/26 13:11:17;;;;;;;2.95;1.10;;;19.20;83.10;;;;;;5011729;28;20038;-74
2022/09/26 13:14:13;;;;;;;2.47;1.45;;;19.20;82.80;;;;;;5014134;28;20029;-73
2022/09/26 13:17:10;;;;;;;3.92;1.95;;;19.10;82.90;;;;;;5004723;28;20555;-73
2022/09/26 13:19:42;;;;;;;4.40;1.52;;;19.10;82.90;;;;;;5011948;28;20110;-74
2022/09/26 13:22:31;;;;;;;3.33;1.50;;;19.00;83.00;;;;;;5009612;28;20485;-74
2022/09/26 13:25:17;;;;;;;5.30;1.60;;;19.00;83.10;;;;;;5013926;28;20074;-73
2022/09/26 13:27:54;;;;;;;3.17;1.70;;;19.00;83.20;;;;;;5012533;28;20026;-73
2022/09/26 13:30:34;;;;;;;4.15;1.55;;;19.00;83.10;;;;;;4995713;28;20029;-73
2022/09/26 13:33:30;;;;;;;5.88;1.88;;;19.00;83.00;;;;;;4997991;28;20088;-73
2022/09/26 13:35:59;;;;;;;3.53;1.30;;;19.00;83.40;;;;;;5012086;28;20095;-73
2022/09/26 13:38:50;;;;;;;3.30;1.60;;;18.90;83.40;;;;;;4995085;28;20374;-72